Domov               UVHVVR             MKGP            O straneh              
ZDRAVSTVENO VARSTVO RASTLIN
  MREŽA AGROMET. POSTAJ
 ► PROGNOSTIČNA OBVESTILA
AGROMETEOROLOŠKI PODATKI -
ARSO
OBVLADOVANJE TVEGANJ ZARADI
NEUGODNIH VREMENSKIH RAZMER
  ► NARAVNE NESREČE
  ► SUŠA/MOČA
  ► NAMAKANJE
  ► ŽLED (gozdarstvo)
KARTOGRAFSKI PRIKAZI
SPLETNE POVEZAVE
PROJEKTI IN PUBLIKACIJE

AGROMETEOROLOŠKA MREŽA: VREMENSKE POSTAJE IN FENOLOŠKA OPAZOVANJA

Pregled podatkov za lokacijo Slom, meteorološka postaja 42786

Pregled senzorjev na lokaciji

ID Ime Zadnja
vrednost
Datum
zadnje
spremembe
Tip
senzorja
2128 Omočenost lista (U) 0 U 26.3.2019 18:00 A730WET
2129 Padavine (mm) 0 mm 26.3.2019 18:00 Rain-O-Matic
2127 Relativna vlaga 2 m (% RH) 39,63 % RH 26.3.2019 17:59 50YA
2126 Temperatura 2 m (°C) 11,59 °C 26.3.2019 18:00 50YA

Pregled podatkov zadnjih 24 ur

Zap.
št.
Datum in čas Slom
Omočenost
lista
Padavine Relativna
vlaga
2
m
Temperatura
2
m
1 26.3.2019 17:30
2 26.3.2019 17:00 0 0 39,6 11,6
3 26.3.2019 16:30 0 0 41,1 11,1
4 26.3.2019 16:00 0 0 40,7 11,5
5 26.3.2019 15:30 0 0 41,1 11,9
6 26.3.2019 15:00 0 0 42 11,5
7 26.3.2019 14:30 0 0 42,9 11,1
8 26.3.2019 14:00 0 0 43,6 11,4
9 26.3.2019 13:30 0 0 46,6 11,1
10 26.3.2019 13:00 0 0 47,2 10,6
11 26.3.2019 12:30 0 0 48,4 10,6
12 26.3.2019 12:00 0 0 51,1 9,9
13 26.3.2019 11:30 0 0 51,5 9,7
14 26.3.2019 11:00 0 0 52 9,6
15 26.3.2019 10:30 0 0 52,6 9,7
16 26.3.2019 10:00 2 0 56,2 8,3
17 26.3.2019 09:30 10 0 63,9 8
18 26.3.2019 09:00 10 0 80 6,8
19 26.3.2019 08:30 10 0 100 4,9
20 26.3.2019 08:00 10 0 100 2,8
21 26.3.2019 07:30 10 0 100 1,8
22 26.3.2019 07:00 10 0 100 1,8
23 26.3.2019 06:30 10 0 100 1,9
24 26.3.2019 06:00 10 0 100 2,1
25 26.3.2019 05:30 10 0 100 2,4
26 26.3.2019 05:00 10 0 100 2,6
27 26.3.2019 04:30 10 0 100 2,5
28 26.3.2019 04:00 10 0 100 2,5
29 26.3.2019 03:30 10 0 100 2,7
30 26.3.2019 03:00 10 0 100 2,8
31 26.3.2019 02:30 10 0 100 2,8
32 26.3.2019 02:00 10 0 100 2,9
33 26.3.2019 01:30 10 0 100 3
34 26.3.2019 01:00 10 0 100 3,1
35 26.3.2019 00:30 10 0 100 3,2
36 26.3.2019 00:00 10 0 100 3,3
37 25.3.2019 23:30 10 0 100 3,5
38 25.3.2019 23:00 10 0 100 3,5
39 25.3.2019 22:30 10 0,2 100 3,7
40 25.3.2019 22:00 10 0,4 100 3,5
41 25.3.2019 21:30 10 2 100 3,5
42 25.3.2019 21:00 10 1,6 100 4
43 25.3.2019 20:30 10 1,2 100 4,6
44 25.3.2019 20:00 10 1,4 100 4,8
45 25.3.2019 19:30 10 1,6 100 5
46 25.3.2019 19:00 9 2,6 100 5,3
47 25.3.2019 18:30 10 2,2 99,9 5,7
48 25.3.2019 18:00 10 3,6 99,3 6,6
© 2011 Ministrstvo za kmetijstvo, gozdarstvo in prehrano. Vse pravice pridržane.